Terminal Aerodrome Forecast
Issued by NWS

Home | Current Version | Previous Version | Text Only | Print | Product List | Glossary On
Versions: 1 2 3 4 5 6 7 8 9 10 11 12 13 14 15 16
000
FTUS43 KGRB 201100
TAFMTW
TAF
KMTW 201120Z 2012/2112 19004KT P6SM BKN100
      TEMPO 2012/2014 3SM BR
     FM201600 21011G18KT P6SM FEW045 SCT100
     FM202300 19008KT P6SM SCT100=

USA.gov is the U.S. government's official web portal to all federal, state and local government web resources and services.